sensor_id;sensor_type;location;lat;lon;timestamp;pressure;altitude;pressure_sealevel;temperature;humidity
44140;BME280;29803;51.048;4.686;2022-10-30T00:01:47;101678.69;;;12.08;100.00
44140;BME280;29803;51.048;4.686;2022-10-30T00:04:18;101674.94;;;12.01;100.00
44140;BME280;29803;51.048;4.686;2022-10-30T00:06:48;101679.09;;;11.95;100.00
44140;BME280;29803;51.048;4.686;2022-10-30T00:09:19;101679.09;;;11.95;100.00
44140;BME280;29803;51.048;4.686;2022-10-30T00:11:49;101675.69;;;11.93;100.00
44140;BME280;29803;51.048;4.686;2022-10-30T00:14:20;101676.88;;;11.90;100.00
44140;BME280;29803;51.048;4.686;2022-10-30T00:16:50;101680.53;;;11.89;100.00
44140;BME280;29803;51.048;4.686;2022-10-30T00:19:20;101674.31;;;11.89;100.00
44140;BME280;29803;51.048;4.686;2022-10-30T00:21:51;101672.63;;;11.88;100.00
44140;BME280;29803;51.048;4.686;2022-10-30T00:24:22;101669.09;;;11.87;100.00
44140;BME280;29803;51.048;4.686;2022-10-30T00:26:53;101664.03;;;11.84;100.00
44140;BME280;29803;51.048;4.686;2022-10-30T00:29:23;101665.72;;;11.85;100.00
44140;BME280;29803;51.048;4.686;2022-10-30T00:31:55;101662.72;;;11.88;100.00
44140;BME280;29803;51.048;4.686;2022-10-30T00:34:26;101659.03;;;11.89;100.00
44140;BME280;29803;51.048;4.686;2022-10-30T00:36:56;101663.25;;;11.92;100.00
44140;BME280;29803;51.048;4.686;2022-10-30T00:39:26;101663.88;;;11.86;100.00
44140;BME280;29803;51.048;4.686;2022-10-30T00:41:57;101667.16;;;11.80;100.00
44140;BME280;29803;51.048;4.686;2022-10-30T00:47:24;101663.56;;;11.71;100.00
44140;BME280;29803;51.048;4.686;2022-10-30T00:50:20;101669.22;;;11.68;100.00
44140;BME280;29803;51.048;4.686;2022-10-30T00:53:15;101657.78;;;11.66;100.00
44140;BME280;29803;51.048;4.686;2022-10-30T00:55:50;101667.00;;;11.63;100.00
44140;BME280;29803;51.048;4.686;2022-10-30T00:58:33;101662.06;;;11.59;100.00
44140;BME280;29803;51.048;4.686;2022-10-30T01:01:08;101663.25;;;11.56;100.00
44140;BME280;29803;51.048;4.686;2022-10-30T01:03:40;101655.78;;;11.50;100.00
44140;BME280;29803;51.048;4.686;2022-10-30T01:06:13;101664.00;;;11.49;100.00
44140;BME280;29803;51.048;4.686;2022-10-30T01:08:46;101666.00;;;11.47;100.00
44140;BME280;29803;51.048;4.686;2022-10-30T01:11:17;101660.78;;;11.45;100.00
44140;BME280;29803;51.048;4.686;2022-10-30T01:13:49;101662.06;;;11.41;100.00
44140;BME280;29803;51.048;4.686;2022-10-30T01:25:50;101679.00;;;11.24;100.00
44140;BME280;29803;51.048;4.686;2022-10-30T01:28:27;101680.31;;;11.20;100.00
44140;BME280;29803;51.048;4.686;2022-10-30T01:34:45;101675.97;;;11.09;100.00
44140;BME280;29803;51.048;4.686;2022-10-30T01:37:24;101677.41;;;11.03;100.00
44140;BME280;29803;51.048;4.686;2022-10-30T01:40:03;101679.69;;;10.98;100.00
44140;BME280;29803;51.048;4.686;2022-10-30T01:42:45;101672.94;;;10.94;100.00
44140;BME280;29803;51.048;4.686;2022-10-30T01:45:20;101677.44;;;10.94;100.00
44140;BME280;29803;51.048;4.686;2022-10-30T01:54:34;101681.28;;;10.91;100.00
44140;BME280;29803;51.048;4.686;2022-10-30T02:00:00;101691.19;;;10.91;100.00
44140;BME280;29803;51.048;4.686;2022-10-30T02:02:32;101687.34;;;10.93;100.00
44140;BME280;29803;51.048;4.686;2022-10-30T02:05:06;101687.88;;;11.06;100.00
44140;BME280;29803;51.048;4.686;2022-10-30T02:07:43;101678.19;;;11.13;100.00
44140;BME280;29803;51.048;4.686;2022-10-30T02:10:14;101679.53;;;11.09;100.00
44140;BME280;29803;51.048;4.686;2022-10-30T02:12:45;101672.88;;;11.04;100.00
44140;BME280;29803;51.048;4.686;2022-10-30T02:15:16;101681.69;;;10.96;100.00
44140;BME280;29803;51.048;4.686;2022-10-30T02:17:55;101680.75;;;10.87;100.00
44140;BME280;29803;51.048;4.686;2022-10-30T02:20:40;101682.63;;;10.77;100.00
44140;BME280;29803;51.048;4.686;2022-10-30T02:23:11;101676.28;;;10.69;100.00
44140;BME280;29803;51.048;4.686;2022-10-30T02:25:57;101677.72;;;10.63;100.00
44140;BME280;29803;51.048;4.686;2022-10-30T02:28:28;101681.56;;;10.60;100.00
44140;BME280;29803;51.048;4.686;2022-10-30T02:30:58;101677.88;;;10.61;100.00
44140;BME280;29803;51.048;4.686;2022-10-30T02:33:29;101682.81;;;10.66;100.00
44140;BME280;29803;51.048;4.686;2022-10-30T02:35:59;101683.22;;;10.71;100.00
44140;BME280;29803;51.048;4.686;2022-10-30T02:38:29;101683.91;;;10.73;100.00
44140;BME280;29803;51.048;4.686;2022-10-30T02:41:00;101684.75;;;10.74;100.00
44140;BME280;29803;51.048;4.686;2022-10-30T02:43:30;101678.25;;;10.76;100.00
44140;BME280;29803;51.048;4.686;2022-10-30T02:46:01;101685.13;;;10.79;100.00
44140;BME280;29803;51.048;4.686;2022-10-30T02:48:32;101672.72;;;10.78;100.00
44140;BME280;29803;51.048;4.686;2022-10-30T02:51:03;101673.16;;;10.73;100.00
44140;BME280;29803;51.048;4.686;2022-10-30T02:53:35;101667.38;;;10.68;100.00
44140;BME280;29803;51.048;4.686;2022-10-30T02:56:08;101672.91;;;10.67;100.00
44140;BME280;29803;51.048;4.686;2022-10-30T02:58:40;101666.69;;;10.66;100.00
44140;BME280;29803;51.048;4.686;2022-10-30T03:01:13;101660.50;;;10.66;100.00
44140;BME280;29803;51.048;4.686;2022-10-30T03:03:45;101670.50;;;10.63;100.00
44140;BME280;29803;51.048;4.686;2022-10-30T03:06:17;101673.34;;;10.62;100.00
44140;BME280;29803;51.048;4.686;2022-10-30T03:08:48;101670.66;;;10.62;100.00
44140;BME280;29803;51.048;4.686;2022-10-30T03:11:19;101677.00;;;10.71;100.00
44140;BME280;29803;51.048;4.686;2022-10-30T03:13:50;101679.78;;;10.79;100.00
44140;BME280;29803;51.048;4.686;2022-10-30T03:16:22;101674.41;;;10.79;100.00
44140;BME280;29803;51.048;4.686;2022-10-30T03:18:54;101679.25;;;10.75;100.00
44140;BME280;29803;51.048;4.686;2022-10-30T03:21:26;101673.16;;;10.73;100.00
44140;BME280;29803;51.048;4.686;2022-10-30T03:23:57;101679.69;;;10.71;100.00
44140;BME280;29803;51.048;4.686;2022-10-30T03:26:27;101686.91;;;10.70;100.00
44140;BME280;29803;51.048;4.686;2022-10-30T03:28:58;101685.34;;;10.68;100.00
44140;BME280;29803;51.048;4.686;2022-10-30T03:31:29;101682.81;;;10.66;100.00
44140;BME280;29803;51.048;4.686;2022-10-30T03:34:01;101689.28;;;10.63;100.00
44140;BME280;29803;51.048;4.686;2022-10-30T03:36:31;101696.50;;;10.63;100.00
44140;BME280;29803;51.048;4.686;2022-10-30T03:39:02;101697.06;;;10.67;100.00
44140;BME280;29803;51.048;4.686;2022-10-30T03:41:33;101697.34;;;10.63;100.00
44140;BME280;29803;51.048;4.686;2022-10-30T03:44:03;101695.09;;;10.59;100.00
44140;BME280;29803;51.048;4.686;2022-10-30T03:46:34;101694.41;;;10.57;100.00
44140;BME280;29803;51.048;4.686;2022-10-30T03:49:05;101691.72;;;10.57;100.00
44140;BME280;29803;51.048;4.686;2022-10-30T03:51:35;101694.41;;;10.57;100.00
44140;BME280;29803;51.048;4.686;2022-10-30T03:54:06;101688.03;;;10.58;100.00
44140;BME280;29803;51.048;4.686;2022-10-30T03:56:36;101694.25;;;10.58;100.00
44140;BME280;29803;51.048;4.686;2022-10-30T03:59:08;101683.53;;;10.58;100.00
44140;BME280;29803;51.048;4.686;2022-10-30T04:01:38;101686.19;;;10.58;100.00
44140;BME280;29803;51.048;4.686;2022-10-30T04:04:09;101685.34;;;10.58;100.00
44140;BME280;29803;51.048;4.686;2022-10-30T04:06:39;101680.00;;;10.58;100.00
44140;BME280;29803;51.048;4.686;2022-10-30T04:09:10;101680.16;;;10.56;100.00
44140;BME280;29803;51.048;4.686;2022-10-30T04:11:41;101684.84;;;10.54;100.00
44140;BME280;29803;51.048;4.686;2022-10-30T04:14:11;101673.53;;;10.51;100.00
44140;BME280;29803;51.048;4.686;2022-10-30T04:16:42;101669.44;;;10.47;100.00
44140;BME280;29803;51.048;4.686;2022-10-30T04:19:12;101668.88;;;10.43;100.00
44140;BME280;29803;51.048;4.686;2022-10-30T04:21:43;101656.06;;;10.37;100.00
44140;BME280;29803;51.048;4.686;2022-10-30T04:24:15;101654.53;;;10.34;100.00
44140;BME280;29803;51.048;4.686;2022-10-30T04:26:48;101657.34;;;10.33;100.00
44140;BME280;29803;51.048;4.686;2022-10-30T04:29:18;101660.72;;;10.35;100.00
44140;BME280;29803;51.048;4.686;2022-10-30T04:31:49;101663.66;;;10.51;100.00
44140;BME280;29803;51.048;4.686;2022-10-30T04:34:20;101663.78;;;10.59;100.00
44140;BME280;29803;51.048;4.686;2022-10-30T04:36:50;101671.50;;;10.62;100.00
44140;BME280;29803;51.048;4.686;2022-10-30T04:39:21;101669.38;;;10.66;100.00
44140;BME280;29803;51.048;4.686;2022-10-30T04:41:52;101671.50;;;10.62;100.00
44140;BME280;29803;51.048;4.686;2022-10-30T04:44:22;101669.97;;;10.60;100.00
44140;BME280;29803;51.048;4.686;2022-10-30T04:46:53;101667.28;;;10.60;100.00
44140;BME280;29803;51.048;4.686;2022-10-30T04:49:24;101665.72;;;10.67;100.00
44140;BME280;29803;51.048;4.686;2022-10-30T04:51:54;101665.41;;;10.70;100.00
44140;BME280;29803;51.048;4.686;2022-10-30T04:54:25;101656.81;;;10.67;100.00
44140;BME280;29803;51.048;4.686;2022-10-30T04:56:57;101661.94;;;10.60;100.00
44140;BME280;29803;51.048;4.686;2022-10-30T04:59:28;101656.13;;;10.65;100.00
44140;BME280;29803;51.048;4.686;2022-10-30T05:01:59;101655.81;;;10.68;100.00
44140;BME280;29803;51.048;4.686;2022-10-30T05:04:29;101664.25;;;10.73;100.00
44140;BME280;29803;51.048;4.686;2022-10-30T05:06:59;101661.03;;;10.69;100.00
44140;BME280;29803;51.048;4.686;2022-10-30T05:09:31;101656.41;;;10.61;100.00
44140;BME280;29803;51.048;4.686;2022-10-30T05:12:02;101660.38;;;10.57;100.00
44140;BME280;29803;51.048;4.686;2022-10-30T05:14:33;101649.53;;;10.49;100.00
44140;BME280;29803;51.048;4.686;2022-10-30T05:17:03;101661.66;;;10.44;100.00
44140;BME280;29803;51.048;4.686;2022-10-30T05:19:34;101657.63;;;10.40;100.00
44140;BME280;29803;51.048;4.686;2022-10-30T05:22:04;101658.75;;;10.37;100.00
44140;BME280;29803;51.048;4.686;2022-10-30T05:24:34;101649.16;;;10.34;100.00
44140;BME280;29803;51.048;4.686;2022-10-30T05:27:05;101654.97;;;10.30;100.00
44140;BME280;29803;51.048;4.686;2022-10-30T05:29:35;101655.38;;;10.25;100.00
44140;BME280;29803;51.048;4.686;2022-10-30T05:32:06;101649.56;;;10.20;100.00
44140;BME280;29803;51.048;4.686;2022-10-30T05:34:36;101637.28;;;10.18;100.00
44140;BME280;29803;51.048;4.686;2022-10-30T05:37:07;101647.47;;;10.14;100.00
44140;BME280;29803;51.048;4.686;2022-10-30T05:39:37;101649.59;;;10.10;100.00
44140;BME280;29803;51.048;4.686;2022-10-30T05:42:08;101648.59;;;10.11;100.00
44140;BME280;29803;51.048;4.686;2022-10-30T05:44:38;101646.91;;;10.10;100.00
44140;BME280;29803;51.048;4.686;2022-10-30T05:47:10;101649.03;;;10.07;100.00
44140;BME280;29803;51.048;4.686;2022-10-30T05:49:41;101658.22;;;10.04;100.00
44140;BME280;29803;51.048;4.686;2022-10-30T05:52:11;101651.28;;;10.02;100.00
44140;BME280;29803;51.048;4.686;2022-10-30T05:54:41;101652.44;;;9.99;100.00
44140;BME280;29803;51.048;4.686;2022-10-30T05:57:12;101649.34;;;9.94;100.00
44140;BME280;29803;51.048;4.686;2022-10-30T05:59:42;101647.09;;;9.90;100.00
44140;BME280;29803;51.048;4.686;2022-10-30T06:02:13;101653.13;;;9.92;100.00
44140;BME280;29803;51.048;4.686;2022-10-30T06:04:43;101650.72;;;9.98;100.00
44140;BME280;29803;51.048;4.686;2022-10-30T06:07:14;101653.81;;;9.94;100.00
44140;BME280;29803;51.048;4.686;2022-10-30T06:09:44;101652.28;;;9.91;100.00
44140;BME280;29803;51.048;4.686;2022-10-30T06:12:15;101647.09;;;9.90;100.00
44140;BME280;29803;51.048;4.686;2022-10-30T06:14:45;101645.53;;;9.87;100.00
44140;BME280;29803;51.048;4.686;2022-10-30T06:17:16;101635.94;;;9.84;100.00
44140;BME280;29803;51.048;4.686;2022-10-30T06:19:46;101630.00;;;9.81;100.00
44140;BME280;29803;51.048;4.686;2022-10-30T06:22:16;101631.84;;;9.80;100.00
44140;BME280;29803;51.048;4.686;2022-10-30T06:24:47;101639.88;;;9.80;100.00
44140;BME280;29803;51.048;4.686;2022-10-30T06:27:17;101635.38;;;9.81;100.00
44140;BME280;29803;51.048;4.686;2022-10-30T06:29:48;101637.22;;;9.80;100.00
44140;BME280;29803;51.048;4.686;2022-10-30T06:32:18;101640.59;;;9.82;100.00
44140;BME280;29803;51.048;4.686;2022-10-30T06:34:49;101635.94;;;9.84;100.00
44140;BME280;29803;51.048;4.686;2022-10-30T06:37:19;101634.94;;;9.85;100.00
44140;BME280;29803;51.048;4.686;2022-10-30T06:39:50;101636.47;;;9.88;100.00
44140;BME280;29803;51.048;4.686;2022-10-30T06:42:20;101649.63;;;9.91;100.00
44140;BME280;29803;51.048;4.686;2022-10-30T06:44:51;101643.09;;;9.94;100.00
44140;BME280;29803;51.048;4.686;2022-10-30T06:47:21;101640.00;;;9.98;100.00
44140;BME280;29803;51.048;4.686;2022-10-30T06:49:51;101643.50;;;10.08;100.00
44140;BME280;29803;51.048;4.686;2022-10-30T06:52:22;101640.13;;;10.16;100.00
44140;BME280;29803;51.048;4.686;2022-10-30T06:54:52;101636.84;;;10.22;100.00
44140;BME280;29803;51.048;4.686;2022-10-30T06:57:23;101625.56;;;10.28;100.00
44140;BME280;29803;51.048;4.686;2022-10-30T06:59:53;101628.53;;;10.35;100.00
44140;BME280;29803;51.048;4.686;2022-10-30T07:02:24;101631.47;;;10.42;100.00
44140;BME280;29803;51.048;4.686;2022-10-30T07:04:54;101632.03;;;10.45;100.00
44140;BME280;29803;51.048;4.686;2022-10-30T07:07:25;101648.53;;;10.50;100.00
44140;BME280;29803;51.048;4.686;2022-10-30T07:09:55;101650.91;;;10.53;100.00
44140;BME280;29803;51.048;4.686;2022-10-30T07:12:26;101635.94;;;10.60;100.00
44140;BME280;29803;51.048;4.686;2022-10-30T07:14:57;101635.34;;;10.67;100.00
44140;BME280;29803;51.048;4.686;2022-10-30T07:18:09;101634.31;;;10.77;100.00
44140;BME280;29803;51.048;4.686;2022-10-30T07:20:55;101637.34;;;10.92;100.00
44140;BME280;29803;51.048;4.686;2022-10-30T07:23:45;101638.38;;;11.09;100.00
44140;BME280;29803;51.048;4.686;2022-10-30T07:26:16;101647.09;;;11.21;100.00
44140;BME280;29803;51.048;4.686;2022-10-30T07:28:47;101636.97;;;11.32;100.00
44140;BME280;29803;51.048;4.686;2022-10-30T07:31:17;101625.06;;;11.53;100.00
44140;BME280;29803;51.048;4.686;2022-10-30T07:33:48;101621.00;;;11.84;100.00
44140;BME280;29803;51.048;4.686;2022-10-30T07:36:18;101625.97;;;12.15;100.00
44140;BME280;29803;51.048;4.686;2022-10-30T07:38:49;101631.28;;;12.33;100.00
44140;BME280;29803;51.048;4.686;2022-10-30T07:41:20;101638.97;;;12.54;100.00
44140;BME280;29803;51.048;4.686;2022-10-30T07:43:51;101627.66;;;12.76;100.00
44140;BME280;29803;51.048;4.686;2022-10-30T07:46:21;101630.72;;;12.89;100.00
44140;BME280;29803;51.048;4.686;2022-10-30T07:48:52;101623.56;;;13.06;100.00
44140;BME280;29803;51.048;4.686;2022-10-30T07:51:22;101618.91;;;13.25;100.00
44140;BME280;29803;51.048;4.686;2022-10-30T07:53:54;101628.72;;;13.50;100.00
44140;BME280;29803;51.048;4.686;2022-10-30T07:56:24;101632.97;;;13.77;100.00
44140;BME280;29803;51.048;4.686;2022-10-30T07:58:55;101633.28;;;13.90;100.00
44140;BME280;29803;51.048;4.686;2022-10-30T08:01:25;101642.56;;;14.04;100.00
44140;BME280;29803;51.048;4.686;2022-10-30T08:03:56;101645.41;;;14.35;100.00
44140;BME280;29803;51.048;4.686;2022-10-30T08:06:26;101643.38;;;14.62;100.00
44140;BME280;29803;51.048;4.686;2022-10-30T08:08:57;101643.41;;;14.93;100.00
44140;BME280;29803;51.048;4.686;2022-10-30T08:11:27;101646.09;;;15.01;100.00
44140;BME280;29803;51.048;4.686;2022-10-30T08:13:58;101647.25;;;15.07;100.00
44140;BME280;29803;51.048;4.686;2022-10-30T08:16:29;101647.34;;;15.21;100.00
44140;BME280;29803;51.048;4.686;2022-10-30T08:18:59;101645.56;;;15.37;100.00
44140;BME280;29803;51.048;4.686;2022-10-30T08:21:30;101634.09;;;15.58;100.00
44140;BME280;29803;51.048;4.686;2022-10-30T08:24:01;101644.09;;;15.80;100.00
44140;BME280;29803;51.048;4.686;2022-10-30T08:26:31;101642.47;;;15.94;100.00
44140;BME280;29803;51.048;4.686;2022-10-30T08:29:05;101641.28;;;16.11;100.00
44140;BME280;29803;51.048;4.686;2022-10-30T08:31:37;101643.28;;;16.17;100.00
44140;BME280;29803;51.048;4.686;2022-10-30T08:34:08;101640.84;;;16.22;100.00
44140;BME280;29803;51.048;4.686;2022-10-30T08:36:39;101631.72;;;16.38;100.00
44140;BME280;29803;51.048;4.686;2022-10-30T08:39:09;101627.66;;;16.72;100.00
44140;BME280;29803;51.048;4.686;2022-10-30T08:41:39;101631.75;;;16.97;100.00
44140;BME280;29803;51.048;4.686;2022-10-30T08:44:10;101638.16;;;17.11;100.00
44140;BME280;29803;51.048;4.686;2022-10-30T08:46:41;101643.28;;;17.21;100.00
44140;BME280;29803;51.048;4.686;2022-10-30T08:49:11;101644.56;;;17.25;100.00
44140;BME280;29803;51.048;4.686;2022-10-30T08:51:42;101641.59;;;17.20;100.00
44140;BME280;29803;51.048;4.686;2022-10-30T08:54:13;101637.59;;;17.01;100.00
44140;BME280;29803;51.048;4.686;2022-10-30T08:56:43;101638.38;;;16.80;100.00
44140;BME280;29803;51.048;4.686;2022-10-30T08:59:14;101637.44;;;16.58;100.00
44140;BME280;29803;51.048;4.686;2022-10-30T09:01:44;101649.38;;;16.49;100.00
44140;BME280;29803;51.048;4.686;2022-10-30T09:04:17;101655.06;;;16.39;100.00
44140;BME280;29803;51.048;4.686;2022-10-30T09:06:48;101659.72;;;16.30;100.00
44140;BME280;29803;51.048;4.686;2022-10-30T09:09:18;101662.50;;;16.22;100.00
44140;BME280;29803;51.048;4.686;2022-10-30T09:11:48;101657.38;;;16.27;100.00
44140;BME280;29803;51.048;4.686;2022-10-30T09:14:19;101663.41;;;16.67;100.00
44140;BME280;29803;51.048;4.686;2022-10-30T09:16:49;101651.03;;;17.24;100.00
44140;BME280;29803;51.048;4.686;2022-10-30T09:19:20;101644.44;;;17.69;100.00
44140;BME280;29803;51.048;4.686;2022-10-30T09:21:50;101646.31;;;17.90;100.00
44140;BME280;29803;51.048;4.686;2022-10-30T09:24:21;101651.81;;;17.97;100.00
44140;BME280;29803;51.048;4.686;2022-10-30T09:26:51;101640.00;;;17.83;100.00
44140;BME280;29803;51.048;4.686;2022-10-30T09:29:22;101638.91;;;17.99;100.00
44140;BME280;29803;51.048;4.686;2022-10-30T09:31:52;101646.19;;;18.26;100.00
44140;BME280;29803;51.048;4.686;2022-10-30T09:34:23;101639.56;;;18.63;100.00
44140;BME280;29803;51.048;4.686;2022-10-30T09:36:53;101641.84;;;18.95;100.00
44140;BME280;29803;51.048;4.686;2022-10-30T09:39:24;101644.66;;;19.14;100.00
44140;BME280;29803;51.048;4.686;2022-10-30T09:42:17;101654.88;;;19.12;100.00
44140;BME280;29803;51.048;4.686;2022-10-30T09:50:38;101636.94;;;19.18;100.00
44140;BME280;29803;51.048;4.686;2022-10-30T09:53:20;101628.16;;;19.29;100.00
44140;BME280;29803;51.048;4.686;2022-10-30T09:56:04;101634.06;;;19.33;100.00
44140;BME280;29803;51.048;4.686;2022-10-30T09:58:41;101635.50;;;19.35;100.00
44140;BME280;29803;51.048;4.686;2022-10-30T10:01:26;101634.72;;;19.55;100.00
44140;BME280;29803;51.048;4.686;2022-10-30T10:04:24;101635.00;;;19.73;100.00
44140;BME280;29803;51.048;4.686;2022-10-30T10:06:56;101641.91;;;19.82;100.00
44140;BME280;29803;51.048;4.686;2022-10-30T10:09:32;101638.34;;;19.95;100.00
44140;BME280;29803;51.048;4.686;2022-10-30T10:12:08;101635.63;;;20.15;100.00
44140;BME280;29803;51.048;4.686;2022-10-30T10:14:51;101640.25;;;20.14;100.00
44140;BME280;29803;51.048;4.686;2022-10-30T10:17:35;101636.88;;;20.12;100.00
44140;BME280;29803;51.048;4.686;2022-10-30T10:20:15;101642.75;;;20.03;100.00
44140;BME280;29803;51.048;4.686;2022-10-30T10:22:49;101645.28;;;20.04;100.00
44140;BME280;29803;51.048;4.686;2022-10-30T10:25:20;101646.31;;;19.97;100.00
44140;BME280;29803;51.048;4.686;2022-10-30T10:28:14;101646.31;;;19.97;100.00
44140;BME280;29803;51.048;4.686;2022-10-30T10:31:22;101644.84;;;19.87;100.00
44140;BME280;29803;51.048;4.686;2022-10-30T10:34:25;101636.66;;;19.81;100.00
44140;BME280;29803;51.048;4.686;2022-10-30T10:40:01;101637.28;;;19.83;100.00
44140;BME280;29803;51.048;4.686;2022-10-30T10:52:02;101639.75;;;19.58;100.00
44140;BME280;29803;51.048;4.686;2022-10-30T10:54:46;101634.72;;;19.55;100.00
44140;BME280;29803;51.048;4.686;2022-10-30T10:57:25;101634.06;;;19.53;100.00
44140;BME280;29803;51.048;4.686;2022-10-30T11:00:05;101636.34;;;19.42;100.00
44140;BME280;29803;51.048;4.686;2022-10-30T11:02:42;101630.09;;;19.49;100.00
44140;BME280;29803;51.048;4.686;2022-10-30T11:05:20;101622.16;;;19.54;100.00
44140;BME280;29803;51.048;4.686;2022-10-30T11:07:58;101631.34;;;19.53;100.00
44140;BME280;29803;51.048;4.686;2022-10-30T11:10:30;101620.03;;;19.42;100.00
44140;BME280;29803;51.048;4.686;2022-10-30T11:13:00;101615.22;;;19.38;100.00
44140;BME280;29803;51.048;4.686;2022-10-30T11:15:52;101624.41;;;19.30;100.00
44140;BME280;29803;51.048;4.686;2022-10-30T11:18:26;101631.88;;;19.15;100.00
44140;BME280;29803;51.048;4.686;2022-10-30T11:26:01;101620.78;;;19.03;100.00
44140;BME280;29803;51.048;4.686;2022-10-30T11:28:41;101622.25;;;19.12;100.00
44140;BME280;29803;51.048;4.686;2022-10-30T11:33:48;101625.00;;;19.19;100.00
44140;BME280;29803;51.048;4.686;2022-10-30T11:36:24;101619.78;;;19.24;100.00
44140;BME280;29803;51.048;4.686;2022-10-30T11:38:57;101626.06;;;19.31;100.00
44140;BME280;29803;51.048;4.686;2022-10-30T11:42:16;101625.91;;;19.39;100.00
44140;BME280;29803;51.048;4.686;2022-10-30T11:44:49;101630.09;;;19.49;100.00
44140;BME280;29803;51.048;4.686;2022-10-30T11:47:31;101620.91;;;19.56;100.00
44140;BME280;29803;51.048;4.686;2022-10-30T11:50:13;101620.72;;;19.58;100.00
44140;BME280;29803;51.048;4.686;2022-10-30T11:52:44;101628.00;;;19.51;100.00
44140;BME280;29803;51.048;4.686;2022-10-30T11:55:26;101615.88;;;19.53;100.00
44140;BME280;29803;51.048;4.686;2022-10-30T11:57:59;101617.13;;;19.51;100.00
44140;BME280;29803;51.048;4.686;2022-10-30T12:00:31;101612.50;;;19.45;100.00
44140;BME280;29803;51.048;4.686;2022-10-30T12:03:03;101615.28;;;19.58;100.00
44140;BME280;29803;51.048;4.686;2022-10-30T12:10:53;101605.69;;;19.88;100.00
44140;BME280;29803;51.048;4.686;2022-10-30T12:13:25;101594.38;;;19.85;100.00
44140;BME280;29803;51.048;4.686;2022-10-30T12:18:34;101604.22;;;19.86;100.00
44140;BME280;29803;51.048;4.686;2022-10-30T12:21:05;101597.09;;;19.78;100.00
44140;BME280;29803;51.048;4.686;2022-10-30T12:23:35;101612.78;;;19.76;100.00
44140;BME280;29803;51.048;4.686;2022-10-30T12:26:10;101608.41;;;19.75;100.00
44140;BME280;29803;51.048;4.686;2022-10-30T12:28:50;101602.75;;;19.70;100.00
44140;BME280;29803;51.048;4.686;2022-10-30T12:31:31;101600.84;;;19.71;100.00
44140;BME280;29803;51.048;4.686;2022-10-30T12:34:39;101606.50;;;19.76;100.00
44140;BME280;29803;51.048;4.686;2022-10-30T12:37:23;101602.09;;;19.81;100.00
44140;BME280;29803;51.048;4.686;2022-10-30T12:40:03;101602.09;;;19.81;100.00
44140;BME280;29803;51.048;4.686;2022-10-30T12:42:38;101597.94;;;19.85;100.00
44140;BME280;29803;51.048;4.686;2022-10-30T12:45:15;101604.63;;;19.83;100.00
44140;BME280;29803;51.048;4.686;2022-10-30T12:50:41;101602.94;;;19.75;100.00
44140;BME280;29803;51.048;4.686;2022-10-30T12:56:13;101613.84;;;19.75;100.00
44140;BME280;29803;51.048;4.686;2022-10-30T12:58:54;101602.09;;;19.81;100.00
44140;BME280;29803;51.048;4.686;2022-10-30T13:01:34;101601.06;;;19.82;100.00
44140;BME280;29803;51.048;4.686;2022-10-30T13:06:43;101595.22;;;19.99;100.00
44140;BME280;29803;51.048;4.686;2022-10-30T13:09:24;101601.47;;;20.06;100.00
44140;BME280;29803;51.048;4.686;2022-10-30T13:12:01;101609.66;;;20.19;100.00
44140;BME280;29803;51.048;4.686;2022-10-30T13:14:38;101597.06;;;20.25;100.00
44140;BME280;29803;51.048;4.686;2022-10-30T13:17:13;101602.28;;;20.39;100.00
44140;BME280;29803;51.048;4.686;2022-10-30T13:19:46;101605.19;;;20.58;100.00
44140;BME280;29803;51.048;4.686;2022-10-30T13:22:22;101601.19;;;20.74;100.00
44140;BME280;29803;51.048;4.686;2022-10-30T13:25:10;101598.19;;;20.82;100.00
44140;BME280;29803;51.048;4.686;2022-10-30T13:31:12;101595.72;;;20.74;100.00
44140;BME280;29803;51.048;4.686;2022-10-30T13:36:38;101603.13;;;20.47;100.00
44140;BME280;29803;51.048;4.686;2022-10-30T13:39:20;101599.34;;;20.48;100.00
44140;BME280;29803;51.048;4.686;2022-10-30T13:53:02;101588.22;;;20.42;100.00
44140;BME280;29803;51.048;4.686;2022-10-30T13:55:34;101588.25;;;20.49;100.00
44140;BME280;29803;51.048;4.686;2022-10-30T14:03:47;101581.94;;;20.55;100.00
44140;BME280;29803;51.048;4.686;2022-10-30T14:09:55;101576.91;;;20.52;100.00
44140;BME280;29803;51.048;4.686;2022-10-30T14:12:51;101590.34;;;20.27;100.00
44140;BME280;29803;51.048;4.686;2022-10-30T14:16:01;101591.81;;;20.16;100.00
44140;BME280;29803;51.048;4.686;2022-10-30T14:24:42;101606.50;;;20.15;100.00
44140;BME280;29803;51.048;4.686;2022-10-30T14:27:19;101604.81;;;20.08;100.00
44140;BME280;29803;51.048;4.686;2022-10-30T14:29:51;101617.63;;;20.01;100.00
44140;BME280;29803;51.048;4.686;2022-10-30T14:40:32;101638.16;;;19.83;100.00
44140;BME280;29803;51.048;4.686;2022-10-30T14:43:13;101643.16;;;19.80;100.00
44140;BME280;29803;51.048;4.686;2022-10-30T14:45:56;101643.56;;;19.77;100.00
44140;BME280;29803;51.048;4.686;2022-10-30T14:51:19;101659.94;;;19.90;100.00
44140;BME280;29803;51.048;4.686;2022-10-30T14:54:09;101663.91;;;19.87;100.00
44140;BME280;29803;51.048;4.686;2022-10-30T14:56:47;101663.50;;;19.84;100.00
44140;BME280;29803;51.048;4.686;2022-10-30T14:59:21;101676.47;;;19.75;100.00
44140;BME280;29803;51.048;4.686;2022-10-30T15:05:02;101687.88;;;19.51;100.00
44140;BME280;29803;51.048;4.686;2022-10-30T15:07:52;101690.78;;;19.42;100.00
44140;BME280;29803;51.048;4.686;2022-10-30T15:10:30;101699.75;;;19.30;100.00